Terminal Aerodrome Forecast
Issued by NWS

Home | Current Version | Previous Version | Graphics & Text | Print | Product List | Glossary On
Versions: 1 2 3 4 5 6 7 8 9 10 11 12 13 14 15 16 17 18 19
000
FTUS43 KABR 060439 AAB
TAFPIR
TAF AMD
KPIR 060439Z 0605/0624 13010G18KT 6SM BR BKN035
     FM061200 13014G23KT 3SM SHRA BR SCT007 BKN015 OVC025=

USA.gov is the U.S. government's official web portal to all federal, state and local government web resources and services.